Time;durP1;ratioP1;P1;durP2;ratioP2;P2;SDS_P1;SDS_P2;PMS_P1;PMS_P2;Temp;Humidity;BMP_temperature;BMP_pressure;BME280_temperature;BME280_humidity;BME280_pressure;Samples;Min_cycle;Max_cycle;Signal;HPM_P1;HPM_P2
2022/01/31 04:02:10;;;;;;;3.20;1.60;;;3.40;82.60;;;;;;5341483;23;20521;-85
2022/01/31 04:04:37;;;;;;;2.90;1.50;;;3.40;81.70;;;;;;4958018;29;20934;-85
2022/01/31 04:07:04;;;;;;;2.70;1.50;;;3.40;82.00;;;;;;4958541;29;20455;-85
2022/01/31 04:09:31;;;;;;;3.10;1.50;;;3.40;81.80;;;;;;4957973;29;20997;-86
2022/01/31 04:11:57;;;;;;;3.93;1.67;;;3.60;81.90;;;;;;4958210;28;20521;-85
2022/01/31 04:14:26;;;;;;;3.03;1.70;;;3.70;81.20;;;;;;4959259;29;21025;-86
2022/01/31 04:16:55;;;;;;;3.57;2.00;;;3.80;80.90;;;;;;4958103;29;20457;-85
2022/01/31 04:19:24;;;;;;;3.00;2.17;;;3.80;80.90;;;;;;4958142;29;20527;-85
2022/01/31 04:21:50;;;;;;;3.50;1.60;;;3.90;81.00;;;;;;4957990;28;20471;-85
2022/01/31 04:24:22;;;;;;;2.80;1.33;;;4.10;80.20;;;;;;4957967;29;20498;-86
2022/01/31 04:26:58;;;;;;;4.30;1.70;;;4.30;79.20;;;;;;4958019;29;20443;-85
2022/01/31 04:29:27;;;;;;;3.47;1.70;;;4.30;79.00;;;;;;4957928;29;20447;-86
2022/01/31 04:31:54;;;;;;;3.00;1.77;;;4.20;78.90;;;;;;4957983;28;20538;-86
2022/01/31 04:34:23;;;;;;;3.00;1.50;;;4.20;79.00;;;;;;4957793;29;20490;-85
2022/01/31 04:36:50;;;;;;;3.20;1.40;;;4.30;79.20;;;;;;4957545;29;20443;-86
2022/01/31 04:39:18;;;;;;;2.70;1.40;;;4.40;79.30;;;;;;4957808;29;20461;-85
2022/01/31 04:41:45;;;;;;;2.93;1.80;;;4.50;78.90;;;;;;4957404;28;20986;-85
2022/01/31 04:44:12;;;;;;;4.47;1.80;;;4.50;78.30;;;;;;4957465;28;20458;-85
2022/01/31 04:46:40;;;;;;;3.60;1.50;;;4.40;78.90;;;;;;4957620;29;20545;-85
2022/01/31 04:49:07;;;;;;;3.23;1.87;;;4.40;79.00;;;;;;4957539;29;20447;-85
2022/01/31 04:51:35;;;;;;;2.83;1.53;;;4.30;79.20;;;;;;4957287;28;20474;-85
2022/01/31 04:54:02;;;;;;;2.80;1.43;;;4.20;79.50;;;;;;4957524;29;20545;-83
2022/01/31 04:56:28;;;;;;;3.67;1.80;;;3.90;80.40;;;;;;4957362;29;20997;-85
2022/01/31 04:58:55;;;;;;;3.10;1.50;;;3.60;81.60;;;;;;4957912;29;20449;-85
2022/01/31 05:01:23;;;;;;;3.53;1.53;;;3.50;82.30;;;;;;4957526;28;20494;-85
2022/01/31 05:03:50;;;;;;;3.23;1.63;;;3.50;82.70;;;;;;4957638;29;20441;-84
2022/01/31 05:06:21;;;;;;;2.50;1.20;;;3.60;82.60;;;;;;4956975;28;20490;-84
2022/01/31 05:08:49;;;;;;;2.80;1.60;;;3.60;82.80;;;;;;4957219;29;20906;-85
2022/01/31 05:11:16;;;;;;;3.13;1.90;;;3.60;82.70;;;;;;4960221;28;20471;-84
2022/01/31 05:13:45;;;;;;;2.93;1.70;;;3.40;83.00;;;;;;4968556;29;20569;-85
2022/01/31 05:16:12;;;;;;;3.17;1.43;;;3.50;83.50;;;;;;4969123;29;20486;-86
2022/01/31 05:18:39;;;;;;;2.80;1.60;;;3.60;83.20;;;;;;4968625;29;20435;-84
2022/01/31 05:21:08;;;;;;;3.30;1.73;;;3.60;82.70;;;;;;4968480;28;20477;-85
2022/01/31 05:23:35;;;;;;;3.10;1.50;;;3.50;83.20;;;;;;4968407;29;21064;-85
2022/01/31 05:26:04;;;;;;;5.13;1.90;;;3.60;82.70;;;;;;4968088;29;20458;-85
2022/01/31 05:28:31;;;;;;;3.50;1.40;;;3.60;82.90;;;;;;4968006;29;20462;-85
2022/01/31 05:30:57;;;;;;;2.90;1.43;;;3.60;82.90;;;;;;4967375;28;20479;-85
2022/01/31 05:33:24;;;;;;;3.17;1.50;;;3.60;82.50;;;;;;4967608;29;20487;-86
2022/01/31 05:35:52;;;;;;;3.20;1.50;;;3.60;82.40;;;;;;4967811;29;20450;-85
2022/01/31 05:38:19;;;;;;;3.20;1.70;;;3.60;82.60;;;;;;4967688;29;20943;-85
2022/01/31 05:40:46;;;;;;;4.17;1.40;;;3.70;82.30;;;;;;4967560;28;20470;-85
2022/01/31 05:43:16;;;;;;;3.17;1.60;;;3.80;82.20;;;;;;4968434;29;20443;-85
2022/01/31 05:45:43;;;;;;;3.90;1.30;;;3.90;81.90;;;;;;4968320;29;20458;-84
2022/01/31 05:48:10;;;;;;;4.20;1.53;;;3.90;81.30;;;;;;4967594;29;20451;-84
2022/01/31 05:50:37;;;;;;;2.63;1.20;;;4.00;81.20;;;;;;4968070;28;20449;-83
2022/01/31 05:53:04;;;;;;;2.57;1.23;;;3.90;81.00;;;;;;4967267;29;20490;-82
2022/01/31 05:55:31;;;;;;;3.07;1.60;;;3.80;81.40;;;;;;4966726;28;20482;-83
2022/01/31 05:57:57;;;;;;;2.80;1.20;;;3.80;81.70;;;;;;4965226;29;20457;-83
2022/01/31 06:00:25;;;;;;;3.23;1.53;;;3.70;81.80;;;;;;4956892;28;20865;-84
2022/01/31 06:02:58;;;;;;;2.77;1.43;;;3.70;82.10;;;;;;4956020;29;20901;-84
2022/01/31 06:05:25;;;;;;;3.10;1.30;;;3.90;82.10;;;;;;4956247;29;20522;-84
2022/01/31 06:07:51;;;;;;;2.47;1.43;;;3.80;81.70;;;;;;4956215;29;20462;-83
2022/01/31 06:10:18;;;;;;;3.10;1.60;;;3.80;81.90;;;;;;4956215;29;20522;-84
2022/01/31 06:12:45;;;;;;;2.70;1.23;;;3.80;82.00;;;;;;4955882;28;21004;-84
2022/01/31 06:15:12;;;;;;;2.70;1.30;;;3.80;82.10;;;;;;4956244;29;20483;-83
2022/01/31 06:17:40;;;;;;;2.70;1.20;;;3.70;82.00;;;;;;4956117;29;20447;-84
2022/01/31 06:20:08;;;;;;;3.37;1.50;;;3.80;82.20;;;;;;4955897;29;20450;-84
2022/01/31 06:22:34;;;;;;;4.00;1.40;;;3.70;82.40;;;;;;4955676;28;21045;-84
2022/01/31 06:25:01;;;;;;;2.77;1.30;;;3.80;82.60;;;;;;4956070;29;20443;-84
2022/01/31 06:27:28;;;;;;;4.67;1.53;;;3.80;82.80;;;;;;4955946;29;20981;-84
2022/01/31 06:29:54;;;;;;;2.87;1.40;;;3.80;83.10;;;;;;4955825;29;20475;-83
2022/01/31 06:32:25;;;;;;;3.47;1.77;;;3.80;83.60;;;;;;4955608;28;20470;-84
2022/01/31 06:34:55;;;;;;;3.13;1.33;;;3.80;84.40;;;;;;4955809;29;20497;-82
2022/01/31 06:37:22;;;;;;;3.70;1.37;;;3.80;84.50;;;;;;4955825;29;20506;-83
2022/01/31 06:39:48;;;;;;;2.40;1.37;;;3.70;85.00;;;;;;4956306;29;20459;-83
2022/01/31 06:42:15;;;;;;;2.83;1.23;;;3.60;85.30;;;;;;4955426;28;20657;-84
2022/01/31 06:44:42;;;;;;;3.47;1.63;;;3.70;85.90;;;;;;4955800;28;20471;-84
2022/01/31 06:47:09;;;;;;;3.10;1.33;;;3.70;86.20;;;;;;4955855;29;20462;-84
2022/01/31 06:49:35;;;;;;;3.90;1.90;;;3.70;86.60;;;;;;4956288;29;20510;-83
2022/01/31 06:52:04;;;;;;;2.60;1.40;;;3.50;87.20;;;;;;4956021;28;20494;-83
2022/01/31 06:54:31;;;;;;;3.43;1.53;;;3.30;88.40;;;;;;4955677;29;20486;-83
2022/01/31 06:56:59;;;;;;;3.73;1.93;;;3.50;89.30;;;;;;4955640;29;20454;-84
2022/01/31 06:59:26;;;;;;;2.80;1.23;;;3.50;89.10;;;;;;4955807;29;20509;-83
2022/01/31 07:01:53;;;;;;;2.90;1.57;;;3.50;88.90;;;;;;4966297;28;20495;-84
2022/01/31 07:04:20;;;;;;;3.40;1.57;;;3.50;89.40;;;;;;4967522;29;20453;-83
2022/01/31 07:06:46;;;;;;;2.80;1.23;;;3.50;89.50;;;;;;4969726;28;20436;-84
2022/01/31 07:09:15;;;;;;;3.73;2.03;;;3.50;89.50;;;;;;4977484;29;20913;-83
2022/01/31 07:11:43;;;;;;;2.77;1.53;;;3.60;89.80;;;;;;4974160;28;20470;-83
2022/01/31 07:14:29;;;;;;;2.53;1.10;;;3.80;89.50;;;;;;4973721;29;20551;-84
2022/01/31 07:16:56;;;;;;;2.70;1.30;;;3.80;89.20;;;;;;4974680;29;20470;-84
2022/01/31 07:19:27;;;;;;;3.30;1.70;;;3.80;89.20;;;;;;4972469;29;20511;-82
2022/01/31 07:21:54;;;;;;;2.77;1.43;;;3.90;88.90;;;;;;4971564;28;20466;-84
2022/01/31 07:24:26;;;;;;;2.40;1.33;;;3.90;89.30;;;;;;4971279;29;20506;-82
2022/01/31 07:26:53;;;;;;;3.27;1.50;;;3.90;88.80;;;;;;4967018;29;20455;-82
2022/01/31 07:29:21;;;;;;;3.10;1.33;;;3.60;89.90;;;;;;4959374;29;20466;-78
2022/01/31 07:31:48;;;;;;;3.90;1.70;;;3.60;90.60;;;;;;4960782;28;20530;-84
2022/01/31 07:34:17;;;;;;;3.00;1.50;;;3.60;90.40;;;;;;4959200;29;20533;-77
2022/01/31 07:36:44;;;;;;;2.63;1.47;;;3.70;90.60;;;;;;4961141;28;20514;-80
2022/01/31 07:39:11;;;;;;;3.60;1.60;;;3.80;90.40;;;;;;4959243;29;20451;-76
2022/01/31 07:41:39;;;;;;;3.43;1.47;;;3.80;90.10;;;;;;4960043;28;20889;-78
2022/01/31 07:44:06;;;;;;;2.43;1.33;;;3.90;90.50;;;;;;4963120;29;20470;-81
2022/01/31 07:46:33;;;;;;;2.60;1.10;;;3.80;90.30;;;;;;4965791;29;20455;-80
2022/01/31 07:49:00;;;;;;;2.50;1.37;;;3.90;90.20;;;;;;4965039;29;20514;-81
2022/01/31 07:51:27;;;;;;;2.70;1.10;;;4.00;90.40;;;;;;4964362;28;20816;-80
2022/01/31 07:53:54;;;;;;;2.70;1.20;;;4.20;89.80;;;;;;4963534;29;20490;-80
2022/01/31 07:56:20;;;;;;;2.70;1.30;;;4.30;89.30;;;;;;4963691;29;20455;-80
2022/01/31 07:58:49;;;;;;;4.10;1.40;;;4.20;89.10;;;;;;4964599;29;20439;-81
2022/01/31 08:01:16;;;;;;;2.40;1.13;;;4.20;89.60;;;;;;4966228;28;20482;-81
2022/01/31 08:03:43;;;;;;;2.63;1.27;;;4.20;89.70;;;;;;4966306;29;20508;-80
2022/01/31 08:06:10;;;;;;;2.30;1.10;;;4.20;89.90;;;;;;4964640;29;20447;-80
2022/01/31 08:08:37;;;;;;;2.90;1.20;;;4.30;89.60;;;;;;4962910;29;20474;-79
2022/01/31 08:11:05;;;;;;;3.00;1.07;;;4.20;89.80;;;;;;4962197;28;20471;-80
2022/01/31 08:13:32;;;;;;;2.40;1.13;;;4.20;89.80;;;;;;4962791;29;20493;-81
2022/01/31 08:16:09;;;;;;;2.40;1.10;;;4.20;90.30;;;;;;4962582;29;20459;-80
2022/01/31 08:18:43;;;;;;;2.20;0.90;;;4.30;89.60;;;;;;4963103;28;20498;-80
2022/01/31 08:21:11;;;;;;;2.07;0.80;;;4.20;89.70;;;;;;4960266;28;20982;-79
2022/01/31 08:23:39;;;;;;;2.40;1.00;;;4.10;90.20;;;;;;4961716;29;20443;-81
2022/01/31 08:26:08;;;;;;;2.60;0.90;;;4.10;90.80;;;;;;4960562;29;20506;-80
2022/01/31 08:28:36;;;;;;;2.67;1.00;;;4.20;90.50;;;;;;4962713;29;20925;-81
2022/01/31 08:31:13;;;;;;;2.10;0.80;;;4.20;90.30;;;;;;4961820;28;20487;-80
2022/01/31 08:33:45;;;;;;;2.77;1.00;;;4.30;90.30;;;;;;4962596;29;20466;-81
2022/01/31 08:36:12;;;;;;;2.30;1.07;;;4.40;90.00;;;;;;4961945;29;20447;-80
2022/01/31 08:38:41;;;;;;;2.20;0.90;;;4.40;90.30;;;;;;4961185;29;20478;-79
2022/01/31 08:41:09;;;;;;;2.20;0.80;;;4.40;89.80;;;;;;4960061;28;20517;-81
2022/01/31 08:43:37;;;;;;;2.20;0.73;;;4.50;90.30;;;;;;4959029;29;20500;-81
2022/01/31 08:46:06;;;;;;;2.20;0.90;;;4.60;89.80;;;;;;4958724;29;20455;-80
2022/01/31 08:48:33;;;;;;;2.20;0.80;;;4.60;89.20;;;;;;4958594;28;20451;-81
2022/01/31 08:51:00;;;;;;;2.10;0.70;;;4.70;89.20;;;;;;4958745;28;21001;-80
2022/01/31 08:53:27;;;;;;;2.27;0.80;;;4.70;88.70;;;;;;4959623;29;20515;-80
2022/01/31 08:55:55;;;;;;;3.47;1.03;;;4.80;89.10;;;;;;4962325;29;20487;-80
2022/01/31 08:58:23;;;;;;;2.40;0.90;;;5.00;88.60;;;;;;4962673;29;20450;-80
2022/01/31 09:00:58;;;;;;;2.10;0.70;;;4.90;88.50;;;;;;4962289;28;20494;-81
2022/01/31 09:03:42;;;;;;;2.10;0.70;;;5.10;87.90;;;;;;4962283;28;20458;-80
2022/01/31 09:06:10;;;;;;;2.10;0.83;;;5.20;86.90;;;;;;4964018;29;20440;-81
2022/01/31 09:08:37;;;;;;;2.30;0.80;;;5.30;86.60;;;;;;4964112;29;20809;-81
2022/01/31 09:11:05;;;;;;;2.07;0.80;;;5.40;86.80;;;;;;4962404;28;20983;-79
2022/01/31 09:13:32;;;;;;;2.00;0.70;;;5.40;86.20;;;;;;4959639;29;20454;-79
2022/01/31 09:15:59;;;;;;;2.00;0.70;;;5.40;86.70;;;;;;4959200;29;20493;-79
2022/01/31 09:18:28;;;;;;;2.00;0.60;;;5.20;86.40;;;;;;4961191;29;20876;-80
2022/01/31 09:20:55;;;;;;;2.10;0.70;;;5.40;87.40;;;;;;4960931;28;20497;-79
2022/01/31 09:23:21;;;;;;;2.10;0.80;;;5.50;86.70;;;;;;4959451;29;20451;-79
2022/01/31 09:25:48;;;;;;;2.30;1.00;;;5.50;86.10;;;;;;4958734;29;20521;-79
2022/01/31 09:28:16;;;;;;;2.00;0.60;;;5.80;86.40;;;;;;4958474;29;20459;-79
2022/01/31 09:30:43;;;;;;;2.03;0.70;;;6.00;86.00;;;;;;4957506;28;20479;-80
2022/01/31 09:33:10;;;;;;;2.03;0.70;;;6.30;84.70;;;;;;4957079;29;20447;-79
2022/01/31 09:35:40;;;;;;;2.60;0.70;;;6.60;84.10;;;;;;4956714;29;20879;-79
2022/01/31 09:38:08;;;;;;;2.60;0.80;;;6.70;83.50;;;;;;4956732;29;20953;-79
2022/01/31 09:40:36;;;;;;;2.40;0.73;;;6.90;82.10;;;;;;4958004;28;20455;-79
2022/01/31 09:45:59;;;;;;;2.00;0.70;;;6.80;80.20;;;;;;4939367;28;20482;-79
2022/01/31 09:48:32;;;;;;;2.00;0.70;;;6.60;79.40;;;;;;4957111;28;20435;-79
2022/01/31 09:51:02;;;;;;;2.00;0.70;;;6.50;80.20;;;;;;4958706;28;20479;-80
2022/01/31 09:53:31;;;;;;;2.00;0.70;;;6.50;80.10;;;;;;4959392;29;20792;-80
2022/01/31 09:55:58;;;;;;;2.03;0.70;;;6.50;80.20;;;;;;4956499;29;20546;-79
2022/01/31 09:58:29;;;;;;;2.57;0.80;;;6.50;79.60;;;;;;4956480;29;20447;-78
2022/01/31 10:01:04;;;;;;;2.30;0.80;;;6.60;80.00;;;;;;4955643;28;21005;-78
2022/01/31 10:03:31;;;;;;;2.27;0.80;;;6.60;79.30;;;;;;4956835;29;20494;-78
2022/01/31 10:06:00;;;;;;;2.10;0.80;;;6.70;78.30;;;;;;4957554;29;20446;-79
2022/01/31 10:08:29;;;;;;;2.00;0.70;;;6.60;78.30;;;;;;4957965;29;20874;-80
2022/01/31 10:11:00;;;;;;;2.20;0.80;;;6.40;78.40;;;;;;4958365;28;20530;-79
2022/01/31 10:16:27;;;;;;;2.87;0.90;;;6.30;77.60;;;;;;4960091;29;20531;-79
2022/01/31 10:19:05;;;;;;;2.10;0.80;;;6.20;78.50;;;;;;4963809;29;20506;-79
2022/01/31 10:21:52;;;;;;;2.20;0.70;;;6.10;78.40;;;;;;4967189;28;20475;-80
2022/01/31 10:24:19;;;;;;;2.10;0.80;;;6.00;78.60;;;;;;4968129;29;20435;-80
2022/01/31 10:26:46;;;;;;;2.00;0.70;;;5.90;78.80;;;;;;4966943;29;20447;-79
2022/01/31 10:29:15;;;;;;;2.90;0.87;;;6.00;79.10;;;;;;4967545;29;20502;-78
2022/01/31 10:31:55;;;;;;;2.07;0.70;;;5.90;79.00;;;;;;4958098;28;20474;-79
2022/01/31 10:34:24;;;;;;;2.20;0.90;;;6.00;78.90;;;;;;4957940;29;20439;-78
2022/01/31 10:36:52;;;;;;;2.10;0.90;;;5.80;78.30;;;;;;4957432;29;20545;-79
2022/01/31 10:54:25;;;;;;;2.17;0.80;;;6.40;76.60;;;;;;4956182;29;20423;-77
2022/01/31 10:56:53;;;;;;;2.10;0.87;;;6.40;75.00;;;;;;4955537;29;20471;-78
2022/01/31 10:59:24;;;;;;;2.53;0.90;;;6.60;75.40;;;;;;4957484;29;20447;-80
2022/01/31 11:01:53;;;;;;;2.40;0.90;;;6.50;75.20;;;;;;4957195;28;20478;-80
2022/01/31 11:04:19;;;;;;;2.03;0.80;;;6.50;74.80;;;;;;4956816;29;20450;-79
2022/01/31 11:06:49;;;;;;;2.40;1.10;;;6.50;73.90;;;;;;4956773;29;20521;-79
2022/01/31 11:09:19;;;;;;;2.10;0.80;;;6.50;74.20;;;;;;4957477;29;20446;-79
2022/01/31 11:11:50;;;;;;;2.10;0.80;;;6.70;74.60;;;;;;4956544;28;20884;-80
2022/01/31 11:14:20;;;;;;;2.00;0.70;;;6.70;73.50;;;;;;4955961;29;20435;-79
2022/01/31 11:16:48;;;;;;;2.00;0.70;;;6.60;73.50;;;;;;4956777;29;20447;-79
2022/01/31 11:19:22;;;;;;;2.10;0.90;;;6.60;73.40;;;;;;4956362;29;20486;-78
2022/01/31 11:21:50;;;;;;;2.10;0.90;;;6.40;74.50;;;;;;4956577;28;20987;-78
2022/01/31 11:24:25;;;;;;;2.30;0.90;;;6.20;75.10;;;;;;4956039;29;20455;-79
2022/01/31 11:27:03;;;;;;;2.60;0.90;;;6.00;75.90;;;;;;4956089;29;20460;-79
2022/01/31 11:29:32;;;;;;;2.03;0.90;;;6.00;76.40;;;;;;4956313;29;20431;-79
2022/01/31 11:32:00;;;;;;;2.00;0.70;;;6.00;76.30;;;;;;4955602;28;20472;-78
2022/01/31 11:34:28;;;;;;;2.50;0.80;;;6.20;77.00;;;;;;4955597;29;20451;-79
2022/01/31 11:36:55;;;;;;;2.00;0.80;;;6.20;76.90;;;;;;4955308;29;20491;-79
2022/01/31 11:39:24;;;;;;;2.60;0.90;;;6.00;76.40;;;;;;4955561;29;20451;-79
2022/01/31 11:41:55;;;;;;;2.30;0.80;;;6.00;77.30;;;;;;4956516;28;20513;-79
2022/01/31 11:44:29;;;;;;;2.30;1.00;;;5.90;78.10;;;;;;4956314;29;20616;-79
2022/01/31 11:46:58;;;;;;;2.13;0.90;;;5.90;78.10;;;;;;4955762;29;20510;-78
2022/01/31 11:49:24;;;;;;;2.03;0.70;;;5.90;78.60;;;;;;4955909;29;20454;-80
2022/01/31 11:52:08;;;;;;;2.87;0.80;;;5.80;78.80;;;;;;4956124;28;20557;-78
2022/01/31 11:54:45;;;;;;;2.20;0.90;;;5.80;77.90;;;;;;4957767;28;20462;-77
2022/01/31 11:57:17;;;;;;;2.20;0.80;;;5.70;77.70;;;;;;4959062;29;20525;-78
2022/01/31 11:59:44;;;;;;;2.20;0.80;;;5.50;78.60;;;;;;4960498;29;20501;-78
2022/01/31 12:02:15;;;;;;;2.33;0.80;;;5.50;79.40;;;;;;4958123;28;20498;-79
2022/01/31 12:04:45;;;;;;;2.33;0.80;;;5.50;79.80;;;;;;4959373;28;20522;-79
2022/01/31 12:07:39;;;;;;;2.27;0.90;;;5.50;79.80;;;;;;4958803;29;20534;-79
2022/01/31 12:10:10;;;;;;;2.23;1.10;;;5.50;79.70;;;;;;4959643;29;20838;-79
2022/01/31 12:12:48;;;;;;;2.20;0.80;;;5.50;79.20;;;;;;4960207;28;20470;-81
2022/01/31 12:15:46;;;;;;;2.27;0.83;;;5.50;79.50;;;;;;4961895;29;20545;-80
2022/01/31 12:18:55;;;;;;;2.10;0.80;;;5.50;79.70;;;;;;4961171;29;20439;-80
2022/01/31 12:24:23;;;;;;;2.10;0.90;;;5.50;79.20;;;;;;4961312;29;20411;-80
2022/01/31 12:26:54;;;;;;;2.20;0.80;;;5.30;78.80;;;;;;4960232;29;20431;-78
2022/01/31 12:29:23;;;;;;;2.50;1.00;;;5.20;79.50;;;;;;4959370;29;20435;-79
2022/01/31 12:31:52;;;;;;;2.30;0.80;;;5.20;80.20;;;;;;4959562;28;20478;-79
2022/01/31 12:34:38;;;;;;;2.67;1.20;;;5.30;80.30;;;;;;4959695;29;20451;-78
2022/01/31 12:37:16;;;;;;;2.30;0.80;;;5.30;80.40;;;;;;4959656;29;20451;-78
2022/01/31 12:40:00;;;;;;;2.27;0.80;;;5.30;80.00;;;;;;4959090;29;20482;-79
2022/01/31 12:45:22;;;;;;;2.00;0.70;;;5.20;81.10;;;;;;4952722;28;20962;-79
2022/01/31 12:48:16;;;;;;;2.03;0.73;;;5.20;80.90;;;;;;4959796;29;20450;-78
2022/01/31 12:50:46;;;;;;;3.07;1.20;;;5.30;81.00;;;;;;4957655;28;20553;-77
2022/01/31 12:53:48;;;;;;;2.50;1.00;;;5.30;80.70;;;;;;4957709;29;20481;-78
2022/01/31 12:56:23;;;;;;;2.60;1.17;;;5.20;80.70;;;;;;4957236;28;20861;-78
2022/01/31 12:58:53;;;;;;;2.90;1.00;;;5.10;81.30;;;;;;4957368;29;20435;-77
2022/01/31 13:01:23;;;;;;;2.30;0.83;;;5.10;81.60;;;;;;4957256;28;20545;-77
2022/01/31 13:03:52;;;;;;;2.30;0.90;;;5.20;81.60;;;;;;4957463;28;20502;-77
2022/01/31 13:06:37;;;;;;;2.40;0.80;;;5.10;81.70;;;;;;4957422;28;20443;-77
2022/01/31 13:09:16;;;;;;;2.40;0.80;;;5.20;82.60;;;;;;4957296;29;20438;-77
2022/01/31 13:11:44;;;;;;;2.40;0.90;;;5.10;82.80;;;;;;4957366;28;20471;-76
2022/01/31 13:14:16;;;;;;;4.60;1.07;;;5.10;82.40;;;;;;4957475;29;20537;-78
2022/01/31 13:16:58;;;;;;;2.77;1.00;;;5.00;83.30;;;;;;4957071;29;20502;-76
2022/01/31 13:19:26;;;;;;;2.50;1.00;;;5.10;83.30;;;;;;4956652;29;20817;-77
2022/01/31 13:21:55;;;;;;;2.30;0.90;;;5.10;83.80;;;;;;4956832;28;20467;-77
2022/01/31 13:24:32;;;;;;;2.80;0.93;;;5.00;83.60;;;;;;4956892;29;20459;-77
2022/01/31 13:27:01;;;;;;;3.00;0.90;;;4.90;83.90;;;;;;4974728;28;20458;-79
2022/01/31 13:29:38;;;;;;;2.33;1.03;;;4.80;84.20;;;;;;4981590;29;20443;-77
2022/01/31 13:32:20;;;;;;;2.20;1.00;;;4.70;84.60;;;;;;4981891;28;20473;-80
2022/01/31 13:34:50;;;;;;;2.27;0.93;;;4.70;85.30;;;;;;4962023;29;20887;-79
2022/01/31 13:37:40;;;;;;;2.50;1.00;;;4.80;85.30;;;;;;4958129;29;20530;-77
2022/01/31 13:40:20;;;;;;;2.50;0.97;;;5.00;84.50;;;;;;4956734;29;20451;-77
2022/01/31 13:43:04;;;;;;;2.13;0.90;;;5.00;83.90;;;;;;4956510;28;20475;-77
2022/01/31 13:45:39;;;;;;;2.63;0.93;;;5.10;83.50;;;;;;4956293;29;20907;-77
2022/01/31 13:48:10;;;;;;;2.47;0.90;;;5.30;83.20;;;;;;4957225;29;20438;-77
2022/01/31 13:50:42;;;;;;;2.10;0.77;;;5.40;82.80;;;;;;4956362;28;20483;-77
2022/01/31 13:53:10;;;;;;;2.10;0.70;;;5.50;82.00;;;;;;4956454;29;20539;-77
2022/01/31 13:55:43;;;;;;;2.30;0.80;;;5.40;80.40;;;;;;4956484;29;20542;-76
2022/01/31 13:58:10;;;;;;;2.30;0.93;;;5.40;80.70;;;;;;4957107;29;20490;-77
2022/01/31 14:00:42;;;;;;;3.37;0.90;;;5.50;80.10;;;;;;4956769;28;20454;-76
2022/01/31 14:03:12;;;;;;;2.40;0.80;;;5.50;79.60;;;;;;4956212;29;20542;-77
2022/01/31 14:05:46;;;;;;;3.20;1.10;;;5.50;79.30;;;;;;4956210;29;20497;-77
2022/01/31 14:08:13;;;;;;;2.63;1.00;;;5.60;79.00;;;;;;4956080;29;20447;-77
2022/01/31 14:10:41;;;;;;;2.10;0.80;;;5.50;78.80;;;;;;4956148;28;20541;-77
2022/01/31 14:13:11;;;;;;;2.10;0.80;;;5.40;79.10;;;;;;4956313;29;20455;-77
2022/01/31 14:15:48;;;;;;;2.00;0.70;;;5.30;79.80;;;;;;4955358;28;20907;-76
2022/01/31 14:18:16;;;;;;;4.23;1.20;;;5.30;79.80;;;;;;4956010;29;20439;-77
2022/01/31 14:20:43;;;;;;;2.50;1.00;;;5.10;80.00;;;;;;4955720;28;20475;-76
2022/01/31 14:23:11;;;;;;;2.40;0.90;;;5.00;79.90;;;;;;4955806;29;20456;-77
2022/01/31 14:25:41;;;;;;;2.53;0.77;;;5.10;80.60;;;;;;4955786;28;20446;-76
2022/01/31 14:28:10;;;;;;;2.30;0.93;;;5.10;80.70;;;;;;4955794;29;20792;-76
2022/01/31 14:30:47;;;;;;;2.60;0.93;;;5.10;79.70;;;;;;4956566;28;20450;-77
2022/01/31 14:33:15;;;;;;;2.30;1.10;;;5.20;78.90;;;;;;4955981;28;20525;-76
2022/01/31 14:35:41;;;;;;;2.40;1.27;;;5.10;79.20;;;;;;4955808;29;20494;-75
2022/01/31 14:38:13;;;;;;;2.20;0.90;;;5.10;78.80;;;;;;4956148;29;20458;-73
2022/01/31 14:41:06;;;;;;;2.70;0.97;;;5.20;78.60;;;;;;4957288;28;20439;-74
2022/01/31 14:49:08;;;;;;;2.47;0.90;;;5.20;77.50;;;;;;4955568;29;20439;-75
2022/01/31 14:51:37;;;;;;;2.50;0.70;;;5.30;77.90;;;;;;4955872;28;20478;-73
2022/01/31 14:54:06;;;;;;;2.20;0.70;;;5.30;77.80;;;;;;4955507;29;20498;-75
2022/01/31 14:56:34;;;;;;;2.20;0.90;;;5.30;77.80;;;;;;4955460;29;20491;-74
2022/01/31 14:59:01;;;;;;;2.70;0.90;;;5.30;78.30;;;;;;4955694;29;20459;-74
2022/01/31 15:01:29;;;;;;;2.23;0.80;;;5.30;78.80;;;;;;4955614;28;20493;-74
2022/01/31 15:03:56;;;;;;;2.30;0.90;;;5.30;79.20;;;;;;4955496;29;20459;-75
2022/01/31 15:06:23;;;;;;;3.17;1.10;;;5.20;80.00;;;;;;4955354;29;20480;-74
2022/01/31 15:08:49;;;;;;;2.17;0.80;;;5.10;80.50;;;;;;4955377;29;20490;-74
2022/01/31 15:11:17;;;;;;;2.03;0.80;;;5.00;81.40;;;;;;4955433;28;20466;-74
2022/01/31 15:13:46;;;;;;;2.23;0.70;;;4.90;82.40;;;;;;4955083;28;20875;-74
2022/01/31 15:16:16;;;;;;;2.10;0.80;;;4.90;82.50;;;;;;4955213;29;20491;-74
2022/01/31 15:18:45;;;;;;;2.53;0.97;;;4.80;82.60;;;;;;4955193;29;20526;-74
2022/01/31 15:21:13;;;;;;;3.20;1.10;;;4.70;83.40;;;;;;4954756;28;20978;-75
2022/01/31 15:23:42;;;;;;;2.20;1.00;;;4.70;83.80;;;;;;4954907;28;20455;-74
2022/01/31 15:26:10;;;;;;;2.10;0.80;;;4.70;84.00;;;;;;4955263;29;20455;-74
2022/01/31 15:28:40;;;;;;;4.70;1.10;;;4.70;84.00;;;;;;4958472;28;20954;-75
2022/01/31 15:31:07;;;;;;;2.73;0.93;;;4.60;84.20;;;;;;4958813;28;20474;-74
2022/01/31 15:33:35;;;;;;;2.67;0.80;;;4.50;84.60;;;;;;4958783;29;20461;-72
2022/01/31 15:36:06;;;;;;;3.00;1.10;;;4.50;84.30;;;;;;4958546;29;20533;-74
2022/01/31 15:38:32;;;;;;;3.40;1.10;;;4.50;85.20;;;;;;4959203;29;20431;-74
2022/01/31 15:40:59;;;;;;;2.47;0.80;;;4.40;85.10;;;;;;4958794;28;20506;-74
2022/01/31 15:43:29;;;;;;;2.50;1.00;;;4.30;85.50;;;;;;4958217;29;20869;-75
2022/01/31 15:45:55;;;;;;;2.67;0.87;;;4.40;86.10;;;;;;4958565;29;20493;-74
2022/01/31 15:48:23;;;;;;;2.17;0.83;;;4.40;85.90;;;;;;4958573;28;20594;-75
2022/01/31 15:50:50;;;;;;;2.63;0.90;;;4.40;85.90;;;;;;4958391;28;20502;-74
2022/01/31 15:53:17;;;;;;;2.40;1.00;;;4.30;86.10;;;;;;4958439;29;20450;-75
2022/01/31 15:55:44;;;;;;;2.13;0.80;;;4.40;86.30;;;;;;4958220;29;20521;-74
2022/01/31 15:58:13;;;;;;;2.70;1.20;;;4.30;86.60;;;;;;4957994;29;20907;-74
2022/01/31 16:00:41;;;;;;;3.13;1.07;;;4.10;87.00;;;;;;4957995;28;20462;-74
2022/01/31 16:03:11;;;;;;;2.67;1.20;;;4.00;87.00;;;;;;4958392;29;20439;-74
2022/01/31 16:05:38;;;;;;;2.60;1.17;;;4.10;87.40;;;;;;4958219;29;20454;-74
2022/01/31 16:08:05;;;;;;;2.50;1.00;;;4.10;87.20;;;;;;4958113;29;20443;-74
2022/01/31 16:10:33;;;;;;;2.30;0.80;;;4.20;87.30;;;;;;4958020;28;20514;-74
2022/01/31 16:13:04;;;;;;;2.87;1.27;;;4.20;87.10;;;;;;4958011;29;20455;-74
2022/01/31 16:15:31;;;;;;;2.30;1.00;;;4.30;87.10;;;;;;4959356;28;20982;-74
2022/01/31 16:17:58;;;;;;;2.40;1.10;;;4.30;86.60;;;;;;4957916;29;20541;-74
2022/01/31 16:20:25;;;;;;;3.40;1.23;;;4.30;86.70;;;;;;4957499;28;20805;-74
2022/01/31 16:22:52;;;;;;;2.80;1.00;;;4.30;86.20;;;;;;4958743;29;20446;-74
2022/01/31 16:25:18;;;;;;;2.53;0.90;;;4.30;86.00;;;;;;4958412;29;20947;-74
2022/01/31 16:27:47;;;;;;;2.47;1.00;;;4.30;86.20;;;;;;4957727;29;20523;-74
2022/01/31 16:30:16;;;;;;;2.17;0.77;;;4.30;86.40;;;;;;4957768;29;20551;-74
2022/01/31 16:32:43;;;;;;;2.77;1.13;;;4.30;86.50;;;;;;4957311;28;20978;-74
2022/01/31 16:35:11;;;;;;;2.67;1.20;;;4.30;86.00;;;;;;4957645;29;20970;-74
2022/01/31 16:37:38;;;;;;;2.70;1.00;;;4.20;85.80;;;;;;4957623;29;20482;-74
2022/01/31 16:40:10;;;;;;;2.40;0.90;;;4.20;86.20;;;;;;4957147;28;20455;-74
2022/01/31 16:42:36;;;;;;;2.50;1.07;;;4.30;86.20;;;;;;4957709;28;20475;-74
2022/01/31 16:45:05;;;;;;;4.40;3.87;;;4.30;85.70;;;;;;4957409;29;20994;-74
2022/01/31 16:47:32;;;;;;;2.40;1.10;;;4.30;85.70;;;;;;4958016;29;20502;-74
2022/01/31 16:49:59;;;;;;;2.40;1.00;;;4.50;85.30;;;;;;4957626;29;20463;-74
2022/01/31 16:52:26;;;;;;;2.50;1.00;;;4.50;84.90;;;;;;4957489;28;20502;-74
2022/01/31 16:54:53;;;;;;;2.20;0.90;;;4.40;84.50;;;;;;4957632;29;20506;-74
2022/01/31 16:57:20;;;;;;;2.30;0.90;;;4.40;84.80;;;;;;4957517;29;20491;-74
2022/01/31 16:59:47;;;;;;;2.30;1.00;;;4.40;85.20;;;;;;4957330;29;20478;-74
2022/01/31 17:02:15;;;;;;;3.70;1.20;;;4.40;84.80;;;;;;4957091;28;20483;-73
2022/01/31 17:04:45;;;;;;;2.70;1.17;;;4.40;85.20;;;;;;4957222;29;20451;-75
2022/01/31 17:07:12;;;;;;;2.40;1.10;;;4.50;84.80;;;;;;4957331;29;20455;-74
2022/01/31 17:09:38;;;;;;;2.40;0.90;;;4.50;84.70;;;;;;4956946;29;20877;-74
2022/01/31 17:12:07;;;;;;;2.67;1.13;;;4.60;84.20;;;;;;4957091;28;20498;-74
2022/01/31 17:14:34;;;;;;;2.40;0.90;;;4.70;83.70;;;;;;4956977;29;20447;-74
2022/01/31 17:17:01;;;;;;;2.77;1.23;;;4.70;83.20;;;;;;4958049;29;21010;-74
2022/01/31 17:19:29;;;;;;;3.60;1.10;;;4.70;83.20;;;;;;4959372;29;20457;-74
2022/01/31 17:21:56;;;;;;;2.50;1.10;;;4.60;83.60;;;;;;4958651;28;20534;-75
2022/01/31 17:24:23;;;;;;;3.80;1.50;;;4.60;83.60;;;;;;4958214;29;20467;-74
2022/01/31 17:26:50;;;;;;;2.10;0.80;;;4.60;83.50;;;;;;4958526;29;20447;-74
2022/01/31 17:29:17;;;;;;;2.60;1.30;;;4.50;83.20;;;;;;4957893;29;20866;-74
2022/01/31 17:31:43;;;;;;;2.20;0.90;;;4.50;84.00;;;;;;4958338;28;20455;-75
2022/01/31 17:34:10;;;;;;;3.13;1.00;;;4.50;83.90;;;;;;4958126;29;20450;-75
2022/01/31 17:36:39;;;;;;;2.50;1.13;;;4.50;84.00;;;;;;4957524;29;20537;-74
2022/01/31 17:39:06;;;;;;;3.50;1.40;;;4.60;83.60;;;;;;4956705;28;20451;-75
2022/01/31 17:41:35;;;;;;;2.20;0.80;;;4.60;83.90;;;;;;4956880;28;20484;-76
2022/01/31 17:44:06;;;;;;;2.67;1.40;;;4.50;83.60;;;;;;4957529;29;20455;-76